Home > Products > Valid Products > MTR

000
SAUS45 KGGW 310249
MTRJDN
METAR KJDN 310248Z AUTO 05006KT 22/07 A3017 RMK AO1 SLP203 T02170072
55000





000
SAUS45 KGGW 310149
MTRJDN
METAR KJDN 310148Z AUTO 03008KT 28/06 A3016 RMK AO1 SLP201 T02780056





000
SAUS45 KGGW 310049
MTRJDN
METAR KJDN 310048Z AUTO 03008KT 29/04 A3016 RMK AO1 SLP203 T02940044





000
SAUS45 KGGW 310049
MTRJDN
METAR KJDN 310048Z AUTO 03008KT 29/04 A3016 RMK AO1 SLP203 T02940044





000
SAUS45 KGGW 302352
MTRJDN
METAR KJDN 302348Z AUTO 33012KT 31/04 A3017 RMK AO1 SLP205 T03060044
10311 20272 58005





000
SAUS45 KGGW 302249
MTRJDN
METAR KJDN 302248Z AUTO 32014G18KT 31/03 A3017 RMK AO1 SLP207
T03110033





000
SAUS45 KGGW 302149
MTRJDN
METAR KJDN 302148Z AUTO 31013KT 31/04 A3018 RMK AO1 WSHFT 2130
SLP211 T03060039





000
SAUS45 KGGW 302149
MTRJDN
METAR KJDN 302148Z AUTO 31013KT 31/04 A3018 RMK AO1 WSHFT 2130
SLP211 T03060039





000
SAUS45 KGGW 302049
MTRJDN
METAR KJDN 302048Z AUTO 31010G16KT 31/05 A3019 RMK AO1 SLP213
T03060050 56010





000
SAUS45 KGGW 301949
MTRJDN
METAR KJDN 301948Z AUTO 00000KT 30/06 A3020 RMK AO1 SLP216 T03000056





000
SAUS45 KGGW 301849
MTRJDN
METAR KJDN 301848Z AUTO 30005KT 29/06 A3021 RMK AO1 SLP220 T02890061





000
SAUS45 KGGW 301749
MTRJDN
METAR KJDN 301748Z AUTO 00000KT 28/06 A3022 RMK AO1 SLP224 T02780056
10278 20100 51001





000
SAUS45 KGGW 301749
MTRJDN
METAR KJDN 301748Z AUTO 00000KT 28/06 A3022 RMK AO1 SLP224 T02780056
10278 20100 51001





000
SAUS45 KGGW 301649
MTRJDN
METAR KJDN 301648Z AUTO 05005KT 27/07 A3022 RMK AO1 SLP224 T02670067





000
SAUS45 KGGW 301649
MTRJDN
METAR KJDN 301648Z AUTO 05005KT 27/07 A3022 RMK AO1 SLP224 T02670067





000
SAUS45 KGGW 301549
MTRJDN
METAR KJDN 301548Z AUTO VRB06KT 25/08 A3022 RMK AO1 SLP224 T02500078





000
SAUS45 KGGW 301449
MTRJDN
METAR KJDN 301448Z AUTO 31006KT 22/08 A3022 RMK AO1 SLP223 T02220083
51010





000
SAUS45 KGGW 301349
MTRJDN
METAR KJDN 301348Z AUTO 27004KT 17/09 A3021 RMK AO1 SLP220 T01720089





000
SAUS45 KGGW 301249
MTRJDN
METAR KJDN 301248Z AUTO 25003KT 12/09 A3020 RMK AO1 SLP218 T01170094





000
SAUS45 KGGW 301249
MTRJDN
METAR KJDN 301248Z AUTO 25003KT 12/09 A3020 RMK AO1 SLP218 T01170094





000
SAUS45 KGGW 301149
MTRJDN
METAR KJDN 301148Z AUTO 27003KT 10/08 A3019 RMK AO1 SLP216 T01000083
10167 20100 51012





000
SAUS45 KGGW 301149
MTRJDN
METAR KJDN 301148Z AUTO 27003KT 10/08 A3019 RMK AO1 SLP216 T01000083
10167 20100 51012





000
SAUS45 KGGW 301050
MTRJDN
METAR KJDN 301048Z AUTO 00000KT 11/08 A3018 RMK AO1 SLP214 T01060083





000
SAUS45 KGGW 300949
MTRJDN
METAR KJDN 300948Z AUTO 23003KT 11/08 A3018 RMK AO1 SLP212 T01060078





000
SAUS45 KGGW 300849
MTRJDN
METAR KJDN 300848Z AUTO 00000KT 12/08 A3015 RMK AO1 SLP202 T01170083
53006





000
SAUS45 KGGW 300749
MTRJDN
METAR KJDN 300748Z AUTO 00000KT 12/09 A3014 RMK AO1 SLP199 T01220089





000
SAUS45 KGGW 300749
MTRJDN
METAR KJDN 300748Z AUTO 00000KT 12/09 A3014 RMK AO1 SLP199 T01220089





000
SAUS45 KGGW 300649
MTRJDN
METAR KJDN 300648Z AUTO 00000KT 13/09 A3013 RMK AO1 SLP196 T01330089
402830094





000
SAUS45 KGGW 300549
MTRJDN
METAR KJDN 300548Z AUTO 20004KT 15/08 A3013 RMK AO1 SLP195 T01500083
10278 20128 50005





000
SAUS45 KGGW 300549
MTRJDN
METAR KJDN 300548Z AUTO 20004KT 15/08 A3013 RMK AO1 SLP195 T01500083
10278 20128 50005





000
SAUS45 KGGW 300449
MTRJDN
METAR KJDN 300448Z AUTO 29003KT 14/09 A3014 RMK AO1 SLP198 T01440094





000
SAUS45 KGGW 300449
MTRJDN
METAR KJDN 300448Z AUTO 29003KT 14/09 A3014 RMK AO1 SLP198 T01440094





000
SAUS45 KGGW 300349
MTRJDN
METAR KJDN 300348Z AUTO 00000KT 18/09 A3013 RMK AO1 SLP194 T01830094





000
SAUS45 KGGW 300249
MTRJDN
METAR KJDN 300248Z AUTO 00000KT 21/08 A3011 RMK AO1 SLP187 T02110078
55000





000
SAUS45 KGGW 300249
MTRJDN
METAR KJDN 300248Z AUTO 00000KT 21/08 A3011 RMK AO1 SLP187 T02110078
55000





000
SAUS45 KGGW 300149
MTRJDN
METAR KJDN 300148Z AUTO 30005KT 26/06 A3010 RMK AO1 SLP183 T02560061





000
SAUS45 KGGW 300049
MTRJDN
METAR KJDN 300048Z AUTO 30007KT 27/04 A3010 RMK AO1 SLP185 T02720044





000
SAUS45 KGGW 292349
MTRJDN
METAR KJDN 292348Z AUTO 29011KT 28/04 A3011 RMK AO1 SLP190 T02780044
10283 20250 56007





000
SAUS45 KGGW 292249
MTRJDN
METAR KJDN 292248Z AUTO 27010KT 27/05 A3012 RMK AO1 SLP193 T02720050





000
SAUS45 KGGW 292249
MTRJDN
METAR KJDN 292248Z AUTO 27010KT 27/05 A3012 RMK AO1 SLP193 T02720050





000
SAUS45 KGGW 292149
MTRJDN
METAR KJDN 292148Z AUTO 27008G16KT 27/04 A3013 RMK AO1 SLP196
T02670039





000
SAUS45 KGGW 292050
MTRJDN
METAR KJDN 292048Z AUTO VRB03KT 27/05 A3014 RMK AO1 SLP198 T02720050
58006





000
SAUS45 KGGW 292050
MTRJDN
METAR KJDN 292048Z AUTO VRB03KT 27/05 A3014 RMK AO1 SLP198 T02720050
58006





000
SAUS45 KGGW 291949
MTRJDN
METAR KJDN 291948Z AUTO 30006G17KT 26/06 A3015 RMK AO1 SLP201
T02610056





000
SAUS45 KGGW 291850
MTRJDN
METAR KJDN 291848Z AUTO 30010G19KT 26/06 A3015 RMK AO1 SLP202
T02610061





000
SAUS45 KGGW 291749
MTRJDN
METAR KJDN 291748Z AUTO 30013KT 25/06 A3016 RMK AO1 SLP206 T02500061
10250 20094 58004





000
SAUS45 KGGW 291749
MTRJDN
METAR KJDN 291748Z AUTO 30013KT 25/06 A3016 RMK AO1 SLP206 T02500061
10250 20094 58004





000
SAUS45 KGGW 291649
MTRJDN
METAR KJDN 291648Z AUTO 29012G19KT 24/07 A3016 RMK AO1 SLP207
T02390067





000
SAUS45 KGGW 291549
MTRJDN
METAR KJDN 291548Z AUTO 30014KT 22/07 A3017 RMK AO1 SLP209 T02220072





000
SAUS45 KGGW 291549
MTRJDN
METAR KJDN 291548Z AUTO 30014KT 22/07 A3017 RMK AO1 SLP209 T02220072





000
SAUS45 KGGW 291449
MTRJDN
METAR KJDN 291448Z AUTO 29013G19KT 20/07 A3017 RMK AO1 SLP209
T02000067 51012





000
SAUS45 KGGW 291449
MTRJDN
METAR KJDN 291448Z AUTO 29013G19KT 20/07 A3017 RMK AO1 SLP209
T02000067 51012





000
SAUS45 KGGW 291349
MTRJDN
METAR KJDN 291348Z AUTO 28004KT 15/08 A3016 RMK AO1 SLP207 T01500078





000
SAUS45 KGGW 291349
MTRJDN
METAR KJDN 291348Z AUTO 28004KT 15/08 A3016 RMK AO1 SLP207 T01500078





000
SAUS45 KGGW 291249
MTRJDN
METAR KJDN 291248Z AUTO 27007KT 11/07 A3015 RMK AO1 SLP208 T01110072





000
SAUS45 KGGW 291249
MTRJDN
METAR KJDN 291248Z AUTO 27007KT 11/07 A3015 RMK AO1 SLP208 T01110072





000
SAUS45 KGGW 291149
MTRJDN
METAR KJDN 291148Z AUTO 30006KT 09/07 A3013 RMK AO1 SLP201 70005
T00940067 10128 20094 52012





000
SAUS45 KGGW 291049
MTRJDN
METAR KJDN 291048Z AUTO 28009KT 11/07 A3012 RMK AO1 SLP195 T01060072





000
SAUS45 KGGW 290949
MTRJDN
METAR KJDN 290948Z AUTO 28007KT 11/07 A3011 RMK AO1 SLP192 T01110072





000
SAUS45 KGGW 290849
MTRJDN
METAR KJDN 290848Z AUTO 28007KT 12/07 A3009 RMK AO1 SLP188 T01170072
53007





000
SAUS45 KGGW 290749
MTRJDN
METAR KJDN 290748Z AUTO 28006KT 12/08 A3008 RMK AO1 SLP184 T01220078





000
SAUS45 KGGW 290649
MTRJDN
METAR KJDN 290648Z AUTO 31005KT 12/08 A3008 RMK AO1 SLP183 T01220078
402330117





000
SAUS45 KGGW 290649
MTRJDN
METAR KJDN 290648Z AUTO 31005KT 12/08 A3008 RMK AO1 SLP183 T01220078
402330117





000
SAUS45 KGGW 290549
MTRJDN
METAR KJDN 290548Z AUTO 28005KT 12/09 A3007 RMK AO1 SLP183 T01220089
10233 20122 51009





000
SAUS45 KGGW 290549
MTRJDN
METAR KJDN 290548Z AUTO 28005KT 12/09 A3007 RMK AO1 SLP183 T01220089
10233 20122 51009





000
SAUS45 KGGW 290449
MTRJDN
METAR KJDN 290448Z AUTO 28006KT 14/09 A3007 RMK AO1 SLP182 T01440089





000
SAUS45 KGGW 290349
MTRJDN
METAR KJDN 290348Z AUTO 29005KT 15/08 A3006 RMK AO1 SLP180 T01500083





000
SAUS45 KGGW 290349
MTRJDN
METAR KJDN 290348Z AUTO 29005KT 15/08 A3006 RMK AO1 SLP180 T01500083





000
SAUS45 KGGW 290249
MTRJDN
METAR KJDN 290248Z AUTO 29008KT 19/07 A3004 RMK AO1 SLP170 T01890067
53014





000
SAUS45 KGGW 290249
MTRJDN
METAR KJDN 290248Z AUTO 29008KT 19/07 A3004 RMK AO1 SLP170 T01890067
53014





000
SAUS45 KGGW 290150
MTRJDN
METAR KJDN 290148Z AUTO 29015G20KT 22/06 A3002 RMK AO1 SLP163
T02170056





000
SAUS45 KGGW 290049
MTRJDN
METAR KJDN 290048Z AUTO 29017G23KT 22/07 A3001 RMK AO1 PK WND
29027/0017 SLP157 T02220067





000
SAUS45 KGGW 282349
MTRJDN
METAR KJDN 282348Z AUTO 30018KT 23/04 A3000 RMK AO1 PK WND
31034/2251 SLP152 T02280039 10228 20167 51010





000
SAUS45 KGGW 282349
MTRJDN
METAR KJDN 282348Z AUTO 30018KT 23/04 A3000 RMK AO1 PK WND
31034/2251 SLP152 T02280039 10228 20167 51010





000
SAUS45 KGGW 282249
MTRJDN
METAR KJDN 282248Z AUTO 31023G34KT 22/06 A3000 RMK AO1 PK WND
32034/2215 SLP152 T02220056





000
SAUS45 KGGW 282249
MTRJDN
METAR KJDN 282248Z AUTO 31023G34KT 22/06 A3000 RMK AO1 PK WND
32034/2215 SLP152 T02220056





000
SAUS45 KGGW 282149
MTRJDN
METAR KJDN 282148Z AUTO 30023G34KT 22/07 A2997 RMK AO1 PK WND
28039/2055 SLP143 T02220067





000
SAUS45 KGGW 282049
MTRJDN
METAR KJDN 282048Z AUTO 30026G42KT 20/06 A2996 RMK AO1 PK WND
29043/2018 SLP143 T02000061 51014





000
SAUS45 KGGW 281949
MTRJDN
METAR KJDN 281948Z AUTO 29023G33KT 20/08 A2995 RMK AO1 PK WND
27039/1913 SLP140 T02000083





000
SAUS45 KGGW 281849
MTRJDN
METAR KJDN 281848Z AUTO 29023G36KT 19/10 A2994 RMK AO1 PK WND
29038/1836 SLP135 T01890100





000
SAUS45 KGGW 281749
MTRJDN
METAR KJDN 281748Z AUTO 29027G37KT 17/12 A2992 RMK AO1 PK WND
28040/1706 SLP131 60005 T01670117 10172 20117 51026





000
SAUS45 KGGW 281749
MTRJDN
METAR KJDN 281748Z AUTO 29027G37KT 17/12 A2992 RMK AO1 PK WND
28040/1706 SLP131 60005 T01670117 10172 20117 51026





000
SAUS45 KGGW 281652
MTRJDN
METAR KJDN 281648Z AUTO 29025G38KT 15/12 A2989 RMK AO1 PK WND
29038/1642 SLP122 P0001 T01500117





000
SAUS45 KGGW 281616
MTRJDN
METAR KJDN 281448Z AUTO 28025G33KT 13/11 A2984 RMK AO1 PK WND
27037/1356 SLP105 P0001 60003 T01280111 53023





000
SAUS45 KGGW 281616
MTRJDN
METAR KJDN 281448Z AUTO 28025G33KT 13/11 A2984 RMK AO1 PK WND
27037/1356 SLP105 P0001 60003 T01280111 53023





000
SAUS45 KGGW 281552
MTRJDN
METAR KJDN 281548Z AUTO 29023G32KT 13/12 A2987 RMK AO1 PK WND
28037/1455 SLP116 P0001 T01330117





000
SAUS45 KGGW 281552
MTRJDN
METAR KJDN 281548Z AUTO 29023G32KT 13/12 A2987 RMK AO1 PK WND
28037/1455 SLP116 P0001 T01330117





000
SAUS45 KGGW 280449
MTRJDN
METAR KJDN 280448Z AUTO 28017G24KT 13/12 A2979 RMK AO1 PK WND
28026/0433 WSHFT 0339 SLP082 T01330117





000
SAUS45 KGGW 280357
MTRJDN
SPECI KJDN 280356Z AUTO 26017G23KT 13/12 A2978 RMK AO1 WSHFT 0339
T01330122





000
SAUS45 KGGW 280349
MTRJDN
METAR KJDN 280348Z AUTO 28012G25KT 250V310 13/12 A2976 RMK AO1 PK
WND 34034/0301 WSHFT 0249 SLP071 P0004 T01330122





    US Dept of Commerce
    National Oceanic and Atmospheric Administration
    National Weather Service
    1325 East West Highway
    Silver Spring, MD 20910
    Page Author: NWS Internet Services Team
Disclaimer
Information Quality
Credits
Glossary
Privacy Policy
Freedom of Information Act (FOIA)
About Us
Career Opportunities